createdAt,value
2022-08-26T00:01:07.069Z,99508.22
2022-08-26T00:05:10.632Z,99501.22
2022-08-26T00:09:16.194Z,99489.78
2022-08-26T00:13:19.989Z,99494.44
2022-08-26T00:17:24.850Z,99493.75
2022-08-26T00:21:29.767Z,99481.41
2022-08-26T00:25:33.769Z,99483.31
2022-08-26T00:29:37.592Z,99487.13
2022-08-26T00:33:43.019Z,99477.47
2022-08-26T00:37:47.907Z,99480.34
2022-08-26T00:41:51.248Z,99482.22
2022-08-26T00:46:00.813Z,99476.06
2022-08-26T00:50:12.005Z,99474.50
2022-08-26T00:54:17.398Z,99491.63
2022-08-26T00:58:21.404Z,99479.31
2022-08-26T01:02:25.261Z,99477.81
2022-08-26T01:06:30.049Z,99477.25
2022-08-26T01:10:33.996Z,99483.81
2022-08-26T01:14:37.997Z,99483.97
2022-08-26T01:18:44.861Z,99488.63
2022-08-26T01:22:56.890Z,99490.66
2022-08-26T01:27:03.622Z,99489.97
2022-08-26T01:31:14.312Z,99474.00
2022-08-26T01:35:17.969Z,99484.09
2022-08-26T01:39:22.983Z,99476.19
2022-08-26T01:43:29.087Z,99480.00
2022-08-26T01:47:36.711Z,99482.81
2022-08-26T01:51:41.146Z,99492.78
2022-08-26T01:55:49.390Z,99483.16
2022-08-26T01:59:56.295Z,99486.91
2022-08-26T02:04:06.384Z,99491.56
2022-08-26T02:08:09.621Z,99490.84
2022-08-26T02:12:18.426Z,99484.69
2022-08-26T02:16:25.385Z,99482.16
2022-08-26T02:20:29.905Z,99483.25
2022-08-26T02:24:50.700Z,99483.38
2022-08-26T02:29:00.060Z,99483.44
2022-08-26T02:33:05.117Z,99483.66
2022-08-26T02:37:11.199Z,99475.00
2022-08-26T02:41:14.259Z,99476.78
2022-08-26T02:45:23.296Z,99467.88
2022-08-26T02:49:30.648Z,99472.47
2022-08-26T02:53:35.413Z,99468.16
2022-08-26T02:57:39.022Z,99465.56
2022-08-26T03:01:45.165Z,99465.75
2022-08-26T03:05:48.708Z,99463.19
2022-08-26T03:09:53.045Z,99462.47
2022-08-26T03:13:56.343Z,99456.47
2022-08-26T03:18:00.813Z,99451.25
2022-08-26T03:22:04.835Z,99456.75
2022-08-26T03:26:10.890Z,99463.22
2022-08-26T03:30:33.483Z,99466.16
2022-08-26T03:34:38.683Z,99465.59
2022-08-26T03:38:42.073Z,99462.09
2022-08-26T03:42:46.810Z,99463.91
2022-08-26T03:46:49.988Z,99461.38
2022-08-26T03:50:54.601Z,99464.13
2022-08-26T03:54:58.931Z,99462.41
2022-08-26T03:59:02.349Z,99465.16
2022-08-26T04:03:05.806Z,99467.91
2022-08-26T04:07:14.803Z,99458.22
2022-08-26T04:11:19.946Z,99454.72
2022-08-26T04:15:23.351Z,99461.09
2022-08-26T04:19:27.046Z,99454.88
2022-08-26T04:23:31.768Z,99461.94
2022-08-26T04:27:50.660Z,99464.69
2022-08-26T04:31:56.064Z,99465.59
2022-08-26T04:36:03.340Z,99470.03
2022-08-26T04:40:10.101Z,99472.66
2022-08-26T04:44:13.793Z,99466.50
2022-08-26T04:48:17.001Z,99463.84
2022-08-26T04:52:21.415Z,99457.63
2022-08-26T04:56:28.731Z,99462.00
2022-08-26T05:00:31.892Z,99463.69
2022-08-26T05:04:35.391Z,99468.09
2022-08-26T05:08:38.490Z,99466.31
2022-08-26T05:12:43.185Z,99470.63
2022-08-26T05:16:48.035Z,99469.66
2022-08-26T05:20:55.147Z,99478.41
2022-08-26T05:29:02.619Z,99482.53
2022-08-26T05:33:07.787Z,99485.00
2022-08-26T05:37:11.176Z,99486.59
2022-08-26T05:41:19.678Z,99484.56
2022-08-26T05:45:26.725Z,99485.16
2022-08-26T05:49:29.950Z,99482.09
2022-08-26T05:53:33.845Z,99482.66
2022-08-26T05:57:42.152Z,99476.94
2022-08-26T06:01:47.577Z,99475.63
2022-08-26T06:05:50.974Z,99482.44
2022-08-26T06:10:01.617Z,99488.22
2022-08-26T06:14:18.022Z,99487.69
2022-08-26T06:18:27.641Z,99478.31
2022-08-26T06:22:49.161Z,99483.00
2022-08-26T06:26:54.561Z,99486.00
2022-08-26T06:31:00.909Z,99488.06
2022-08-26T06:35:07.389Z,99478.31
2022-08-26T06:39:17.457Z,99477.66
2022-08-26T06:43:25.923Z,99482.28
2022-08-26T06:47:29.481Z,99473.50
2022-08-26T06:51:36.825Z,99478.44
2022-08-26T06:55:41.864Z,99476.44
2022-08-26T06:59:45.486Z,99477.00
2022-08-26T07:03:50.732Z,99471.28
2022-08-26T07:07:55.915Z,99478.94
2022-08-26T07:11:59.026Z,99471.50
2022-08-26T07:16:04.467Z,99474.63
2022-08-26T07:20:09.520Z,99477.56
2022-08-26T07:24:14.199Z,99463.34
2022-08-26T07:28:18.014Z,99474.75
2022-08-26T07:32:22.958Z,99478.44
2022-08-26T07:36:28.487Z,99470.78
2022-08-26T07:40:34.087Z,99470.63
2022-08-26T07:44:37.916Z,99465.00
2022-08-26T07:48:53.448Z,99468.50
2022-08-26T07:52:57.506Z,99466.06
2022-08-26T07:57:02.203Z,99465.78
2022-08-26T08:01:11.759Z,99465.38
2022-08-26T08:05:42.646Z,99459.78
2022-08-26T08:09:51.349Z,99470.28
2022-08-26T08:13:56.943Z,99463.19
2022-08-26T08:18:01.159Z,99463.16
2022-08-26T08:22:29.955Z,99462.03
2022-08-26T08:26:35.233Z,99461.47
2022-08-26T08:30:41.894Z,99462.38
2022-08-26T08:34:45.661Z,99458.59
2022-08-26T08:38:49.017Z,99454.84
2022-08-26T08:42:59.229Z,99450.44
2022-08-26T08:47:07.532Z,99441.66
2022-08-26T08:51:22.726Z,99444.72
2022-08-26T08:55:30.916Z,99441.78
2022-08-26T08:59:38.444Z,99441.22
2022-08-26T09:03:53.506Z,99433.22
2022-08-26T09:08:02.658Z,99432.88
2022-08-26T09:12:08.702Z,99428.19
2022-08-26T09:16:19.032Z,99426.13
2022-08-26T09:20:36.321Z,99431.66
2022-08-26T09:24:48.566Z,99430.06
2022-08-26T09:28:57.589Z,99417.44
2022-08-26T09:33:10.240Z,99415.22
2022-08-26T09:37:35.816Z,99417.84
2022-08-26T09:41:39.094Z,99412.47
2022-08-26T09:45:50.295Z,99410.41
2022-08-26T09:50:09.665Z,99413.78
2022-08-26T09:54:30.450Z,99408.59
2022-08-26T09:58:38.380Z,99406.91
2022-08-26T10:02:47.930Z,99397.56
2022-08-26T10:06:58.306Z,99400.16
2022-08-26T10:11:08.137Z,99395.09
2022-08-26T10:15:14.098Z,99395.47
2022-08-26T10:19:22.795Z,99393.75
2022-08-26T10:23:29.421Z,99389.94
2022-08-26T10:27:52.654Z,99390.91
2022-08-26T10:32:03.491Z,99393.06
2022-08-26T10:36:39.338Z,99385.84
2022-08-26T10:40:56.252Z,99375.44
2022-08-26T10:45:11.862Z,99372.41
2022-08-26T10:49:18.897Z,99365.31
2022-08-26T10:53:32.945Z,99363.66
2022-08-26T10:57:45.403Z,99361.41
2022-08-26T11:01:57.679Z,99358.25
2022-08-26T11:06:23.747Z,99352.66
2022-08-26T11:11:03.342Z,99343.22
2022-08-26T11:15:08.285Z,99334.53
2022-08-26T11:20:01.431Z,99333.44
2022-08-26T11:24:07.559Z,99328.47
2022-08-26T11:28:10.973Z,99321.06
2022-08-26T11:32:26.399Z,99316.66
2022-08-26T11:36:43.899Z,99314.09
2022-08-26T11:40:58.793Z,99310.56
2022-08-26T11:45:05.669Z,99308.41
2022-08-26T11:49:09.343Z,99305.44
2022-08-26T11:53:19.271Z,99298.28
2022-08-26T11:57:24.356Z,99286.56
2022-08-26T12:01:31.320Z,99280.28
2022-08-26T12:05:38.209Z,99273.38
2022-08-26T12:09:54.680Z,99275.38
2022-08-26T12:14:02.627Z,99269.34
2022-08-26T12:18:28.827Z,99259.88
2022-08-26T12:22:35.973Z,99260.88
2022-08-26T12:26:39.574Z,99263.28
2022-08-26T12:31:00.218Z,99255.25
2022-08-26T12:39:13.407Z,99240.06
2022-08-26T12:43:38.521Z,99232.75
2022-08-26T12:47:44.852Z,99229.88
2022-08-26T12:51:51.390Z,99227.44
2022-08-26T12:55:56.562Z,99225.28
2022-08-26T13:00:40.249Z,99220.84
2022-08-26T13:04:46.218Z,99214.25
2022-08-26T13:08:51.437Z,99205.75
2022-08-26T13:12:55.207Z,99194.41
2022-08-26T13:16:58.331Z,99200.47
2022-08-26T13:21:10.021Z,99199.44
2022-08-26T13:25:13.143Z,99192.72
2022-08-26T13:29:17.320Z,99186.38
2022-08-26T13:33:21.637Z,99170.03
2022-08-26T13:37:34.452Z,99171.34
2022-08-26T13:41:38.061Z,99172.75
2022-08-26T13:45:41.118Z,99161.72
2022-08-26T13:49:44.725Z,99166.91
2022-08-26T13:53:49.143Z,99152.00
2022-08-26T13:57:52.359Z,99157.16
2022-08-26T14:01:55.628Z,99150.59
2022-08-26T14:05:59.414Z,99141.69
2022-08-26T14:10:04.565Z,99139.09
2022-08-26T14:14:07.687Z,99139.97
2022-08-26T14:18:13.540Z,99140.25
2022-08-26T14:22:22.196Z,99140.25
2022-08-26T14:26:29.134Z,99138.53
2022-08-26T14:30:33.061Z,99130.78
2022-08-26T14:34:36.333Z,99137.00
2022-08-26T14:38:39.363Z,99130.72
2022-08-26T14:42:47.894Z,99135.47
2022-08-26T14:46:55.975Z,99136.34
2022-08-26T14:50:59.269Z,99134.66
2022-08-26T14:55:02.367Z,99136.81
2022-08-26T14:59:07.238Z,99131.50
2022-08-26T15:03:10.474Z,99140.38
2022-08-26T15:07:13.633Z,99129.19
2022-08-26T15:11:18.359Z,99129.19
2022-08-26T15:15:22.866Z,99122.03
2022-08-26T15:19:27.154Z,99116.91
2022-08-26T15:23:30.263Z,99110.72
2022-08-26T15:27:33.880Z,99112.19
2022-08-26T15:31:38.601Z,99110.19
2022-08-26T15:35:42.915Z,99106.00
2022-08-26T15:39:46.275Z,99106.91
2022-08-26T15:43:49.449Z,99106.16
2022-08-26T15:48:01.386Z,99100.88
2022-08-26T15:52:06.081Z,99100.75
2022-08-26T15:56:09.344Z,99098.59
2022-08-26T16:00:14.957Z,99107.78
2022-08-26T16:04:20.168Z,99111.66
2022-08-26T16:08:23.328Z,99108.22
2022-08-26T16:12:26.582Z,99104.09
2022-08-26T16:16:30.139Z,99095.38
2022-08-26T16:20:37.356Z,99097.34
2022-08-26T16:24:40.624Z,99100.38
2022-08-26T16:28:44.498Z,99093.78
2022-08-26T16:32:48.189Z,99086.03
2022-08-26T16:36:53.059Z,99083.75
2022-08-26T16:40:56.122Z,99073.47
2022-08-26T16:44:59.631Z,99070.59
2022-08-26T16:49:04.416Z,99074.16
2022-08-26T16:57:17.886Z,99073.59
2022-08-26T17:01:21.930Z,99078.75
2022-08-26T17:05:26.463Z,99077.47
2022-08-26T17:09:31.471Z,99076.28
2022-08-26T17:13:36.192Z,99082.41
2022-08-26T17:17:40.677Z,99075.69
2022-08-26T17:21:44.072Z,99075.50
2022-08-26T17:25:49.608Z,99074.34
2022-08-26T17:29:52.899Z,99077.78
2022-08-26T17:33:56.840Z,99077.47
2022-08-26T17:38:00.625Z,99073.81
2022-08-26T17:42:05.742Z,99083.78
2022-08-26T17:46:11.727Z,99072.88
2022-08-26T17:50:18.562Z,99081.72
2022-08-26T17:54:21.727Z,99075.97
2022-08-26T17:58:26.385Z,99079.19
2022-08-26T18:02:32.247Z,99083.31
2022-08-26T18:06:35.884Z,99080.41
2022-08-26T18:10:39.279Z,99087.31
2022-08-26T18:14:44.015Z,99091.44
2022-08-26T18:18:48.305Z,99098.38
2022-08-26T18:22:51.427Z,99090.19
2022-08-26T18:26:54.535Z,99101.56
2022-08-26T18:30:59.223Z,99103.09
2022-08-26T18:35:02.814Z,99109.97
2022-08-26T18:39:07.563Z,99104.50
2022-08-26T18:43:10.677Z,99115.94
2022-08-26T18:47:15.051Z,99113.75
2022-08-26T18:51:18.883Z,99114.50
2022-08-26T18:55:22.151Z,99123.78
2022-08-26T18:59:28.802Z,99131.94
2022-08-26T19:03:35.029Z,99131.06
2022-08-26T19:07:39.695Z,99134.50
2022-08-26T19:11:43.329Z,99135.25
2022-08-26T19:15:46.732Z,99142.00
2022-08-26T19:19:53.525Z,99146.31
2022-08-26T19:23:58.029Z,99156.25
2022-08-26T19:28:01.366Z,99157.22
2022-08-26T19:32:05.621Z,99162.25
2022-08-26T19:36:15.751Z,99158.91
2022-08-26T19:40:19.050Z,99159.28
2022-08-26T19:44:41.407Z,99156.91
2022-08-26T19:48:45.668Z,99159.97
2022-08-26T19:52:50.409Z,99165.63
2022-08-26T19:56:53.709Z,99169.78
2022-08-26T20:00:56.904Z,99171.97
2022-08-26T20:05:00.256Z,99178.06
2022-08-26T20:09:04.896Z,99174.22
2022-08-26T20:13:08.664Z,99184.53
2022-08-26T20:17:12.448Z,99182.94
2022-08-26T20:21:27.835Z,99187.81
2022-08-26T20:25:33.628Z,99200.78
2022-08-26T20:29:38.501Z,99201.94
2022-08-26T20:33:46.484Z,99194.97
2022-08-26T20:37:50.150Z,99196.16
2022-08-26T20:41:55.176Z,99193.69
2022-08-26T20:45:58.590Z,99192.31
2022-08-26T20:50:02.499Z,99189.09
2022-08-26T20:54:06.544Z,99192.97
2022-08-26T20:58:11.801Z,99178.94
2022-08-26T21:02:15.162Z,99186.28
2022-08-26T21:06:18.540Z,99185.66
2022-08-26T21:10:21.956Z,99180.47
2022-08-26T21:14:28.157Z,99187.19
2022-08-26T21:18:31.382Z,99186.56
2022-08-26T21:22:34.762Z,99181.59
2022-08-26T21:26:38.532Z,99172.09
2022-08-26T21:30:43.582Z,99175.22
2022-08-26T21:34:46.807Z,99184.41
2022-08-26T21:38:50.272Z,99188.94
2022-08-26T21:42:53.438Z,99193.34
2022-08-26T21:46:58.465Z,99189.16
2022-08-26T21:51:01.661Z,99198.44
2022-08-26T21:55:09.073Z,99206.75
2022-08-26T21:59:13.079Z,99208.81
2022-08-26T22:03:18.964Z,99213.13
2022-08-26T22:07:22.232Z,99211.28
2022-08-26T22:11:27.351Z,99213.34
2022-08-26T22:15:33.069Z,99210.84
2022-08-26T22:19:45.940Z,99209.34
2022-08-26T22:23:50.480Z,99211.59
2022-08-26T22:27:54.238Z,99216.50
2022-08-26T22:31:57.646Z,99205.94
2022-08-26T22:36:03.100Z,99213.28
2022-08-26T22:40:08.170Z,99207.88
2022-08-26T22:44:12.847Z,99216.38
2022-08-26T22:48:18.805Z,99225.63
2022-08-26T22:52:23.376Z,99224.22
2022-08-26T22:56:26.604Z,99217.31
2022-08-26T23:00:32.441Z,99218.59
2022-08-26T23:04:36.177Z,99224.19
2022-08-26T23:08:42.095Z,99224.41
2022-08-26T23:12:45.989Z,99219.50
2022-08-26T23:16:49.621Z,99217.13
2022-08-26T23:20:56.753Z,99227.13
2022-08-26T23:25:02.543Z,99224.53
2022-08-26T23:29:13.042Z,99225.81
2022-08-26T23:33:16.686Z,99230.63
2022-08-26T23:37:20.454Z,99230.75
2022-08-26T23:41:26.391Z,99219.09
2022-08-26T23:45:29.655Z,99219.47
2022-08-26T23:49:33.963Z,99224.09
2022-08-26T23:53:39.018Z,99231.69
2022-08-26T23:57:44.113Z,99232.13
